Time,TemperatureF,DewpointF,PressureIn,WindDirection,WindDirectionDegrees,WindSpeedMPH,WindSpeedGustMPH,Humidity,HourlyPrecipIn,Conditions,Clouds,dailyrainin,SolarRadiationWatts/m^2,SoftwareType,DateUTC
2013-05-31 00:02:00,50.0,13.0,-100.00,NNE,29,0.0,5.0,22,0.00,,,0.00,0.000000,,2013-05-31 07:02:00,
2013-05-31 00:52:00,47.0,11.0,-100.00,North,358,0.0,5.0,23,0.00,,,0.00,0.000000,,2013-05-31 07:52:00,
2013-05-31 01:02:00,47.0,11.0,-100.00,North,358,0.0,5.0,23,0.00,,,0.00,0.000000,,2013-05-31 08:02:00,
2013-05-31 01:52:00,47.0,11.0,-100.00,NNW,342,0.0,2.0,23,-99.99,,,0.00,0.000000,,2013-05-31 08:52:00,
2013-05-31 02:01:00,47.0,11.0,-100.00,NNW,342,0.0,2.0,23,-99.99,,,0.00,0.000000,,2013-05-31 09:01:00,
2013-05-31 02:53:00,50.0,16.0,-100.00,WSW,243,0.0,0.0,25,0.00,,,0.00,0.000000,,2013-05-31 09:53:00,
2013-05-31 03:02:00,50.0,16.0,-100.00,WSW,243,0.0,0.0,25,0.00,,,0.00,0.000000,,2013-05-31 10:02:00,
2013-05-31 03:12:00,50.0,16.0,-100.00,WSW,243,0.0,0.0,25,0.00,,,0.00,0.000000,,2013-05-31 10:12:00,
2013-05-31 03:22:00,50.0,16.0,-100.00,WSW,243,0.0,0.0,25,0.00,,,0.00,0.000000,,2013-05-31 10:22:00,
2013-05-31 03:32:00,50.0,16.0,-100.00,WSW,243,0.0,0.0,25,0.00,,,0.00,0.000000,,2013-05-31 10:32:00,
2013-05-31 03:52:00,58.0,7.0,-100.00,North,351,0.0,11.0,13,0.00,,,0.00,0.000000,,2013-05-31 10:52:00,
2013-05-31 04:02:00,58.0,7.0,-100.00,North,351,0.0,11.0,13,0.00,,,0.00,0.000000,,2013-05-31 11:02:00,
2013-05-31 04:52:00,50.0,11.0,-100.00,NE,40,0.0,8.0,20,0.00,,,0.00,0.000000,,2013-05-31 11:52:00,
2013-05-31 05:01:00,50.0,11.0,-100.00,NE,40,0.0,8.0,20,0.00,,,0.00,0.000000,,2013-05-31 12:01:00,
2013-05-31 05:11:00,50.0,11.0,-100.00,NE,40,0.0,8.0,20,0.00,,,0.00,0.000000,,2013-05-31 12:11:00,
2013-05-31 05:21:00,50.0,11.0,-100.00,NE,40,0.0,8.0,20,0.00,,,0.00,0.000000,,2013-05-31 12:21:00,
2013-05-31 05:31:00,50.0,11.0,-100.00,NE,40,0.0,8.0,20,0.00,,,0.00,0.000000,,2013-05-31 12:31:00,
2013-05-31 05:52:00,45.0,11.0,-100.00,North,355,0.0,2.0,25,0.00,,,0.00,0.000000,,2013-05-31 12:52:00,
2013-05-31 06:01:00,45.0,11.0,-100.00,North,355,0.0,2.0,25,0.00,,,0.00,0.000000,,2013-05-31 13:01:00,
2013-05-31 06:11:00,45.0,11.0,-100.00,North,355,0.0,2.0,25,0.00,,,0.00,0.000000,,2013-05-31 13:11:00,
2013-05-31 06:21:00,45.0,11.0,-100.00,North,355,0.0,2.0,25,0.00,,,0.00,0.000000,,2013-05-31 13:21:00,
2013-05-31 06:32:00,45.0,11.0,-100.00,North,355,0.0,2.0,25,0.00,,,0.00,0.000000,,2013-05-31 13:32:00,
2013-05-31 06:52:00,48.0,16.0,-100.00,North,352,0.0,0.0,27,0.00,,,0.00,16.000000,,2013-05-31 13:52:00,
2013-05-31 07:02:00,48.0,16.0,-100.00,North,352,0.0,0.0,27,0.00,,,0.00,16.000000,,2013-05-31 14:02:00,
2013-05-31 07:11:00,48.0,16.0,-100.00,North,352,0.0,0.0,27,0.00,,,0.00,16.000000,,2013-05-31 14:11:00,
2013-05-31 07:21:00,48.0,16.0,-100.00,North,352,0.0,0.0,27,0.00,,,0.00,16.000000,,2013-05-31 14:21:00,
2013-05-31 07:31:00,48.0,16.0,-100.00,North,352,0.0,0.0,27,0.00,,,0.00,16.000000,,2013-05-31 14:31:00,
2013-05-31 07:52:00,65.0,23.0,-100.00,North,10,2.0,8.0,20,0.00,,,0.00,61.000000,,2013-05-31 14:52:00,
2013-05-31 08:01:00,65.0,23.0,-100.00,North,10,2.0,8.0,20,0.00,,,0.00,61.000000,,2013-05-31 15:01:00,
2013-05-31 08:53:00,70.0,19.0,-100.00,NNE,20,7.0,15.0,14,0.00,,,0.00,303.000000,,2013-05-31 15:53:00,
2013-05-31 09:03:00,70.0,19.0,-100.00,NNE,20,7.0,15.0,14,0.00,,,0.00,303.000000,,2013-05-31 16:03:00,
2013-05-31 09:52:00,73.0,19.0,-100.00,NE,42,4.0,14.0,13,0.00,,,0.00,818.000000,,2013-05-31 16:52:00,
2013-05-31 10:02:00,73.0,19.0,-100.00,NE,42,4.0,14.0,13,0.00,,,0.00,818.000000,,2013-05-31 17:02:00,
2013-05-31 10:31:00,73.0,19.0,-100.00,NE,42,4.0,14.0,13,0.00,,,0.00,818.000000,,2013-05-31 17:31:00,
2013-05-31 10:52:00,72.0,20.0,-100.00,SW,229,6.0,19.0,14,0.00,,,0.00,1028.000000,,2013-05-31 17:52:00,
2013-05-31 11:01:00,72.0,20.0,-100.00,SW,229,6.0,19.0,14,0.00,,,0.00,1028.000000,,2013-05-31 18:01:00,
2013-05-31 11:11:00,72.0,20.0,-100.00,SW,229,6.0,19.0,14,0.00,,,0.00,1028.000000,,2013-05-31 18:11:00,
2013-05-31 11:22:00,72.0,20.0,-100.00,SW,229,6.0,19.0,14,0.00,,,0.00,1028.000000,,2013-05-31 18:22:00,
2013-05-31 11:31:00,72.0,20.0,-100.00,SW,229,6.0,19.0,14,0.00,,,0.00,1028.000000,,2013-05-31 18:31:00,
2013-05-31 11:52:00,77.0,20.0,-100.00,NW,312,4.0,17.0,12,0.00,,,0.00,1179.000000,,2013-05-31 18:52:00,
2013-05-31 12:01:00,77.0,20.0,-100.00,NW,312,4.0,17.0,12,0.00,,,0.00,1179.000000,,2013-05-31 19:01:00,
2013-05-31 12:31:00,77.0,20.0,-100.00,NW,312,4.0,17.0,12,0.00,,,0.00,1179.000000,,2013-05-31 19:31:00,
2013-05-31 12:52:00,77.0,18.0,-100.00,NE,38,6.0,15.0,11,0.00,,,0.00,1258.000000,,2013-05-31 19:52:00,
2013-05-31 13:01:00,77.0,18.0,-100.00,NE,38,6.0,15.0,11,0.00,,,0.00,1258.000000,,2013-05-31 20:01:00,
2013-05-31 13:11:00,77.0,18.0,-100.00,NE,38,6.0,15.0,11,0.00,,,0.00,1258.000000,,2013-05-31 20:11:00,
2013-05-31 13:22:00,77.0,18.0,-100.00,NE,38,6.0,15.0,11,0.00,,,0.00,1258.000000,,2013-05-31 20:22:00,
2013-05-31 13:31:00,77.0,18.0,-100.00,NE,38,6.0,15.0,11,0.00,,,0.00,1258.000000,,2013-05-31 20:31:00,
2013-05-31 14:01:00,79.0,20.0,-100.00,NE,42,5.0,18.0,11,0.00,,,0.00,1271.000000,,2013-05-31 21:01:00,
2013-05-31 14:11:00,79.0,20.0,-100.00,NE,42,5.0,18.0,11,0.00,,,0.00,1271.000000,,2013-05-31 21:11:00,
2013-05-31 14:22:00,79.0,20.0,-100.00,NE,42,5.0,18.0,11,0.00,,,0.00,1271.000000,,2013-05-31 21:22:00,
2013-05-31 15:02:00,81.0,19.0,-100.00,NE,50,5.0,15.0,10,0.00,,,0.00,1231.000000,,2013-05-31 22:02:00,
2013-05-31 16:02:00,81.0,19.0,-100.00,ENE,68,5.0,15.0,10,-99.99,,,0.00,1112.000000,,2013-05-31 23:02:00,
2013-05-31 17:01:00,81.0,17.0,-100.00,NNE,15,5.0,15.0,9,-99.99,,,0.00,923.000000,,2013-06-01 00:01:00,
2013-05-31 17:52:00,77.0,16.0,-100.00,NNE,16,4.0,15.0,10,-99.99,,,0.00,637.000000,,2013-06-01 00:52:00,
2013-05-31 18:01:00,77.0,16.0,-100.00,NNE,16,4.0,15.0,10,-99.99,,,0.00,637.000000,,2013-06-01 01:01:00,
2013-05-31 18:52:00,71.0,18.0,-100.00,North,353,3.0,15.0,13,0.00,,,0.00,72.000000,,2013-06-01 01:52:00,
2013-05-31 19:01:00,71.0,18.0,-100.00,North,353,3.0,15.0,13,0.00,,,0.00,72.000000,,2013-06-01 02:01:00,
2013-05-31 19:52:00,69.0,18.0,-100.00,North,357,0.0,9.0,14,0.00,,,0.00,30.000000,,2013-06-01 02:52:00,
2013-05-31 20:01:00,69.0,18.0,-100.00,North,357,0.0,9.0,14,0.00,,,0.00,30.000000,,2013-06-01 03:01:00,
2013-05-31 20:53:00,60.0,19.0,-100.00,NNE,25,0.0,5.0,20,0.00,,,0.00,3.000000,,2013-06-01 03:53:00,
2013-05-31 21:02:00,60.0,19.0,-100.00,NNE,25,0.0,5.0,20,0.00,,,0.00,3.000000,,2013-06-01 04:02:00,
2013-05-31 21:53:00,56.0,19.0,-100.00,North,355,0.0,0.0,23,0.00,,,0.00,0.000000,,2013-06-01 04:53:00,
2013-05-31 22:02:00,56.0,19.0,-100.00,North,355,0.0,0.0,23,0.00,,,0.00,0.000000,,2013-06-01 05:02:00,
2013-05-31 22:12:00,56.0,19.0,-100.00,North,355,0.0,0.0,23,0.00,,,0.00,0.000000,,2013-06-01 05:12:00,
2013-05-31 22:52:00,53.0,19.0,-100.00,NNE,12,0.0,0.0,26,0.00,,,0.00,0.000000,,2013-06-01 05:52:00,
2013-05-31 23:01:00,53.0,19.0,-100.00,NNE,12,0.0,0.0,26,0.00,,,0.00,0.000000,,2013-06-01 06:01:00,
2013-05-31 23:12:00,53.0,19.0,-100.00,NNE,12,0.0,0.0,26,0.00,,,0.00,0.000000,,2013-06-01 06:12:00,
2013-05-31 23:22:00,53.0,19.0,-100.00,NNE,12,0.0,0.0,26,0.00,,,0.00,0.000000,,2013-06-01 06:22:00,
2013-05-31 23:32:00,53.0,19.0,-100.00,NNE,12,0.0,0.0,26,0.00,,,0.00,0.000000,,2013-06-01 06:32:00,
2013-05-31 23:52:00,51.0,20.0,-100.00,North,349,0.0,0.0,29,0.00,,,0.00,0.000000,,2013-06-01 06:52:00,